createdAt,value
2022-11-21T00:00:50.906Z,72.83
2022-11-21T00:03:53.077Z,74.74
2022-11-21T00:06:55.217Z,75.08
2022-11-21T00:09:57.271Z,76.26
2022-11-21T00:12:59.370Z,77.62
2022-11-21T00:16:10.485Z,78.61
2022-11-21T00:19:12.556Z,78.94
2022-11-21T00:22:14.751Z,77.63
2022-11-21T00:25:17.008Z,75.79
2022-11-21T00:28:19.144Z,75.84
2022-11-21T00:31:22.885Z,75.97
2022-11-21T00:34:25.226Z,76.13
2022-11-21T00:37:27.748Z,75.30
2022-11-21T00:40:29.845Z,75.62
2022-11-21T00:43:32.319Z,75.31
2022-11-21T00:46:34.393Z,75.40
2022-11-21T00:49:36.542Z,74.50
2022-11-21T00:52:38.595Z,73.89
2022-11-21T00:55:41.881Z,73.29
2022-11-21T00:58:43.957Z,72.95
2022-11-21T01:01:46.076Z,73.98
2022-11-21T01:04:48.193Z,73.51
2022-11-21T01:07:50.793Z,74.19
2022-11-21T01:10:52.860Z,74.18
2022-11-21T01:13:55.002Z,73.86
2022-11-21T01:16:57.057Z,74.52
2022-11-21T01:19:59.134Z,74.48
2022-11-21T01:23:01.186Z,74.17
2022-11-21T01:26:13.305Z,74.20
2022-11-21T01:29:15.361Z,75.08
2022-11-21T01:32:17.382Z,76.06
2022-11-21T01:35:19.597Z,76.06
2022-11-21T01:38:21.677Z,76.46
2022-11-21T01:41:46.746Z,75.89
2022-11-21T01:44:56.844Z,75.97
2022-11-21T01:47:58.900Z,77.71
2022-11-21T01:51:21.395Z,75.82
2022-11-21T01:54:37.521Z,75.26
2022-11-21T01:57:44.965Z,75.50
2022-11-21T02:00:47.076Z,75.29
2022-11-21T02:03:49.160Z,75.21
2022-11-21T02:06:51.545Z,74.62
2022-11-21T02:09:56.837Z,73.80
2022-11-21T02:12:59.308Z,73.59
2022-11-21T02:16:02.626Z,73.27
2022-11-21T02:19:04.973Z,74.39
2022-11-21T02:22:24.837Z,74.75
2022-11-21T02:25:38.543Z,74.64
2022-11-21T02:28:41.690Z,75.91
2022-11-21T02:31:43.741Z,73.94
2022-11-21T02:34:45.765Z,74.76
2022-11-21T02:37:53.057Z,78.29
2022-11-21T02:41:16.021Z,78.74
2022-11-21T02:44:29.533Z,78.00
2022-11-21T02:47:31.887Z,78.38
2022-11-21T02:50:36.170Z,76.73
2022-11-21T02:53:38.253Z,77.06
2022-11-21T02:56:40.289Z,77.47
2022-11-21T02:59:42.345Z,76.62
2022-11-21T03:02:44.460Z,77.50
2022-11-21T03:05:46.519Z,76.17
2022-11-21T03:08:48.640Z,76.15
2022-11-21T03:11:50.770Z,75.76
2022-11-21T03:14:52.806Z,75.11
2022-11-21T03:17:55.468Z,75.76
2022-11-21T03:20:58.065Z,75.13
2022-11-21T03:24:00.117Z,75.36
2022-11-21T03:27:02.147Z,74.41
2022-11-21T03:30:04.920Z,74.77
2022-11-21T03:33:06.981Z,74.31
2022-11-21T03:36:09.111Z,74.35
2022-11-21T03:39:11.195Z,75.01
2022-11-21T03:42:13.309Z,74.75
2022-11-21T03:45:15.353Z,74.53
2022-11-21T03:48:17.433Z,75.62
2022-11-21T03:51:19.812Z,73.91
2022-11-21T03:54:21.888Z,75.23
2022-11-21T03:57:23.921Z,74.83
2022-11-21T04:00:26.289Z,74.79
2022-11-21T04:03:28.364Z,75.56
2022-11-21T04:06:31.470Z,75.36
2022-11-21T04:09:33.630Z,75.78
2022-11-21T04:12:35.713Z,76.17
2022-11-21T04:15:37.778Z,76.69
2022-11-21T04:18:39.883Z,76.88
2022-11-21T04:21:41.978Z,77.06
2022-11-21T04:24:44.098Z,78.31
2022-11-21T04:27:46.149Z,77.89
2022-11-21T04:30:48.391Z,77.07
2022-11-21T04:33:50.428Z,77.31
2022-11-21T04:36:52.500Z,76.61
2022-11-21T04:39:54.531Z,77.16
2022-11-21T04:42:56.595Z,75.91
2022-11-21T04:45:58.633Z,76.07
2022-11-21T04:49:00.709Z,75.51
2022-11-21T04:52:02.734Z,76.50
2022-11-21T04:55:05.519Z,75.72
2022-11-21T04:58:07.551Z,77.58
2022-11-21T05:01:09.821Z,76.67
2022-11-21T05:04:12.016Z,76.88
2022-11-21T05:07:14.319Z,77.12
2022-11-21T05:10:16.573Z,76.42
2022-11-21T05:13:21.639Z,76.47
2022-11-21T05:16:23.687Z,77.51
2022-11-21T05:19:25.715Z,76.63
2022-11-21T05:22:27.839Z,76.96
2022-11-21T05:25:29.885Z,77.04
2022-11-21T05:28:31.929Z,76.18
2022-11-21T05:31:33.969Z,77.46
2022-11-21T05:34:36.045Z,76.87
2022-11-21T05:37:38.156Z,75.70
2022-11-21T05:40:40.220Z,75.76
2022-11-21T05:43:48.046Z,76.62
2022-11-21T05:46:50.024Z,77.36
2022-11-21T05:49:52.040Z,76.63
2022-11-21T05:52:54.089Z,76.98
2022-11-21T05:55:56.103Z,77.06
2022-11-21T05:59:01.174Z,76.48
2022-11-21T06:02:21.998Z,76.66
2022-11-21T06:05:24.066Z,77.08
2022-11-21T06:08:27.902Z,77.46
2022-11-21T06:11:29.965Z,77.65
2022-11-21T06:14:32.038Z,76.99
2022-11-21T06:17:34.231Z,76.04
2022-11-21T06:20:36.725Z,76.85
2022-11-21T06:23:38.946Z,77.31
2022-11-21T06:26:41.032Z,76.91
2022-11-21T06:29:43.521Z,76.37
2022-11-21T06:32:45.567Z,78.27
2022-11-21T06:35:47.656Z,79.62
2022-11-21T06:38:49.737Z,77.97
2022-11-21T06:41:51.809Z,78.38
2022-11-21T06:44:53.850Z,77.62
2022-11-21T06:47:56.039Z,77.13
2022-11-21T06:50:58.541Z,77.19
2022-11-21T06:54:01.194Z,77.88
2022-11-21T06:57:03.289Z,78.13
2022-11-21T07:00:06.136Z,77.81
2022-11-21T07:03:08.150Z,77.14
2022-11-21T07:06:10.275Z,76.98
2022-11-21T07:09:41.153Z,78.19
2022-11-21T07:12:54.106Z,78.32
2022-11-21T07:16:02.023Z,76.94
2022-11-21T07:19:03.989Z,76.95
2022-11-21T07:22:06.762Z,78.41
2022-11-21T07:25:09.302Z,76.95
2022-11-21T07:28:11.395Z,77.38
2022-11-21T07:31:14.366Z,77.82
2022-11-21T07:34:16.615Z,78.97
2022-11-21T07:37:18.789Z,77.91
2022-11-21T07:40:21.165Z,80.14
2022-11-21T07:43:23.264Z,80.12
2022-11-21T07:46:25.312Z,81.42
2022-11-21T07:49:27.705Z,80.08
2022-11-21T07:52:30.527Z,79.73
2022-11-21T07:55:36.426Z,81.46
2022-11-21T07:58:42.392Z,81.89
2022-11-21T08:01:45.758Z,80.60
2022-11-21T08:04:51.015Z,82.20
2022-11-21T08:07:53.173Z,82.66
2022-11-21T08:10:55.260Z,81.89
2022-11-21T08:13:59.560Z,82.38
2022-11-21T08:17:01.622Z,83.02
2022-11-21T08:20:04.623Z,82.97
2022-11-21T08:23:06.967Z,82.93
2022-11-21T08:26:10.648Z,82.66
2022-11-21T08:29:13.205Z,81.49
2022-11-21T08:32:15.428Z,81.11
2022-11-21T08:35:17.562Z,80.41
2022-11-21T08:38:19.704Z,81.30
2022-11-21T08:41:40.591Z,81.98
2022-11-21T08:44:42.772Z,82.41
2022-11-21T08:47:44.850Z,81.78
2022-11-21T08:50:46.929Z,81.37
2022-11-21T08:53:48.996Z,81.36
2022-11-21T08:56:51.357Z,81.83
2022-11-21T08:59:53.424Z,83.23
2022-11-21T09:02:55.480Z,82.24
2022-11-21T09:05:57.985Z,81.69
2022-11-21T09:09:00.329Z,80.88
2022-11-21T09:12:02.903Z,80.79
2022-11-21T09:15:24.588Z,80.89
2022-11-21T09:18:26.881Z,81.87
2022-11-21T09:21:28.977Z,80.95
2022-11-21T09:24:31.062Z,81.14
2022-11-21T09:27:33.101Z,80.72
2022-11-21T09:30:35.401Z,81.18
2022-11-21T09:33:37.464Z,81.30
2022-11-21T09:36:39.565Z,81.02
2022-11-21T09:39:41.654Z,82.15
2022-11-21T09:43:10.774Z,80.77
2022-11-21T09:46:17.379Z,81.14
2022-11-21T09:49:19.496Z,78.79
2022-11-21T09:52:22.824Z,78.90
2022-11-21T09:55:57.058Z,79.93
2022-11-21T09:59:23.141Z,79.13
2022-11-21T10:02:25.264Z,78.38
2022-11-21T10:05:36.732Z,81.69
2022-11-21T10:09:07.988Z,78.88
2022-11-21T10:12:37.136Z,78.96
2022-11-21T10:16:00.537Z,76.19
2022-11-21T10:19:31.251Z,73.77
2022-11-21T10:23:03.561Z,73.83
2022-11-21T10:26:44.092Z,73.03
2022-11-21T10:30:00.359Z,72.24
2022-11-21T10:33:04.549Z,72.70
2022-11-21T10:36:33.850Z,71.90
2022-11-21T10:39:49.992Z,72.88
2022-11-21T10:42:58.631Z,71.51
2022-11-21T10:46:05.730Z,73.43
2022-11-21T10:49:12.244Z,74.51
2022-11-21T10:52:16.767Z,73.12
2022-11-21T10:55:19.012Z,72.69
2022-11-21T10:58:49.937Z,72.13
2022-11-21T11:02:15.198Z,73.97
2022-11-21T11:05:21.456Z,74.95
2022-11-21T11:08:23.547Z,73.79
2022-11-21T11:11:26.229Z,78.37
2022-11-21T11:14:33.076Z,77.77
2022-11-21T11:17:35.105Z,76.64
2022-11-21T11:20:43.813Z,76.01
2022-11-21T11:23:47.100Z,73.67
2022-11-21T11:26:49.453Z,73.13
2022-11-21T11:29:53.150Z,72.35
2022-11-21T11:32:55.375Z,72.17
2022-11-21T11:36:06.119Z,71.46
2022-11-21T11:39:20.968Z,72.37
2022-11-21T11:43:36.025Z,70.99
2022-11-21T11:47:32.566Z,71.47
2022-11-21T11:50:47.333Z,73.68
2022-11-21T11:53:55.201Z,72.32
2022-11-21T11:57:00.596Z,72.01
2022-11-21T12:00:45.911Z,71.81
2022-11-21T12:03:58.207Z,71.29
2022-11-21T12:11:05.291Z,72.71
2022-11-21T12:15:15.250Z,72.38
2022-11-21T12:18:30.761Z,74.10
2022-11-21T12:21:32.866Z,75.48
2022-11-21T12:24:39.787Z,77.84
2022-11-21T12:27:44.742Z,78.79
2022-11-21T12:30:46.722Z,78.74
2022-11-21T12:34:56.747Z,79.23
2022-11-21T12:38:14.102Z,79.77
2022-11-21T12:42:00.115Z,79.29
2022-11-21T12:45:27.294Z,80.19
2022-11-21T12:48:54.549Z,79.87
2022-11-21T12:52:56.016Z,79.37
2022-11-21T12:56:04.486Z,79.84
2022-11-21T12:59:06.597Z,80.78
2022-11-21T13:02:52.897Z,80.56
2022-11-21T13:05:55.706Z,80.17
2022-11-21T13:08:59.361Z,80.36
2022-11-21T13:12:26.537Z,80.05
2022-11-21T13:15:38.669Z,78.90
2022-11-21T13:18:46.244Z,79.19
2022-11-21T13:21:50.358Z,79.82
2022-11-21T13:24:52.345Z,79.98
2022-11-21T13:27:54.937Z,81.16
2022-11-21T13:30:57.595Z,81.28
2022-11-21T13:34:01.146Z,81.02
2022-11-21T13:37:04.284Z,80.23
2022-11-21T13:40:28.084Z,78.96
2022-11-21T13:43:33.876Z,79.16
2022-11-21T13:46:58.985Z,78.67
2022-11-21T13:50:44.978Z,79.26
2022-11-21T13:54:29.210Z,79.62
2022-11-21T13:57:50.172Z,79.74
2022-11-21T14:01:49.195Z,79.76
2022-11-21T14:05:08.566Z,79.68
2022-11-21T14:08:23.199Z,80.17
2022-11-21T14:11:54.579Z,80.54
2022-11-21T14:15:04.223Z,81.31
2022-11-21T14:18:06.276Z,80.96
2022-11-21T14:21:42.666Z,80.06
2022-11-21T14:24:45.064Z,80.20
2022-11-21T14:27:50.075Z,79.26
2022-11-21T14:31:06.721Z,79.41
2022-11-21T14:34:09.258Z,80.28
2022-11-21T14:37:11.750Z,79.45
2022-11-21T14:40:24.218Z,78.36
2022-11-21T14:43:33.365Z,77.76
2022-11-21T14:46:39.374Z,78.98
2022-11-21T14:49:53.069Z,79.15
2022-11-21T14:52:58.762Z,78.83
2022-11-21T14:56:01.849Z,78.60
2022-11-21T14:59:04.097Z,78.26
2022-11-21T15:02:23.906Z,80.74
2022-11-21T15:06:00.927Z,80.60
2022-11-21T15:10:11.604Z,81.48
2022-11-21T15:12:28.256Z,80.69
2022-11-21T15:15:42.945Z,81.11
2022-11-21T15:18:44.999Z,80.18
2022-11-21T15:21:47.070Z,80.67
2022-11-21T15:24:49.123Z,79.27
2022-11-21T15:27:52.654Z,80.52
2022-11-21T15:31:19.796Z,81.21
2022-11-21T15:34:35.379Z,82.17
2022-11-21T15:37:38.310Z,81.67
2022-11-21T15:40:44.273Z,81.18
2022-11-21T15:44:02.910Z,80.94
2022-11-21T15:47:08.262Z,80.77
2022-11-21T15:50:10.308Z,81.26
2022-11-21T15:53:18.399Z,80.31
2022-11-21T15:56:23.061Z,80.45
2022-11-21T15:59:25.349Z,81.64
2022-11-21T16:02:27.450Z,81.00
2022-11-21T16:05:29.532Z,81.44
2022-11-21T16:08:31.802Z,81.81
2022-11-21T16:11:37.513Z,81.16
2022-11-21T16:14:39.537Z,80.70
2022-11-21T16:17:41.804Z,81.93
2022-11-21T16:20:43.913Z,82.32
2022-11-21T16:23:46.096Z,82.06
2022-11-21T16:26:49.492Z,82.06
2022-11-21T16:29:51.545Z,82.56
2022-11-21T16:32:55.631Z,82.26
2022-11-21T16:35:57.831Z,81.65
2022-11-21T16:39:07.716Z,82.25
2022-11-21T16:42:11.670Z,81.54
2022-11-21T16:45:14.005Z,81.68
2022-11-21T16:48:16.081Z,82.36
2022-11-21T16:51:19.815Z,81.96
2022-11-21T16:54:21.974Z,80.99
2022-11-21T16:57:24.010Z,80.37
2022-11-21T17:00:26.888Z,80.72
2022-11-21T17:03:29.099Z,81.33
2022-11-21T17:06:31.348Z,81.20
2022-11-21T17:09:33.488Z,81.35
2022-11-21T17:12:39.533Z,81.29
2022-11-21T17:15:41.863Z,81.43
2022-11-21T17:18:44.201Z,81.27
2022-11-21T17:21:46.308Z,80.51
2022-11-21T17:24:48.471Z,80.55
2022-11-21T17:27:50.536Z,81.16
2022-11-21T17:30:52.569Z,81.12
2022-11-21T17:34:00.727Z,80.65
2022-11-21T17:37:02.974Z,79.82
2022-11-21T17:40:06.707Z,80.44
2022-11-21T17:43:09.105Z,80.46
2022-11-21T17:46:17.608Z,80.91
2022-11-21T17:49:20.571Z,80.69
2022-11-21T17:52:22.611Z,80.63
2022-11-21T17:55:24.657Z,79.38
2022-11-21T17:58:27.848Z,80.09
2022-11-21T18:01:30.095Z,79.82
2022-11-21T18:04:34.433Z,78.80
2022-11-21T18:07:37.833Z,78.55
2022-11-21T18:10:44.175Z,78.83
2022-11-21T18:13:46.537Z,79.35
2022-11-21T18:16:53.068Z,78.03
2022-11-21T18:19:55.820Z,77.41
2022-11-21T18:22:57.893Z,78.37
2022-11-21T18:26:14.581Z,76.75
2022-11-21T18:32:38.772Z,77.24
2022-11-21T18:35:42.274Z,77.02
2022-11-21T18:38:51.431Z,77.91
2022-11-21T18:41:58.641Z,77.61
2022-11-21T18:45:00.758Z,76.55
2022-11-21T18:48:02.881Z,77.60
2022-11-21T18:51:09.606Z,77.38
2022-11-21T18:54:11.850Z,78.79
2022-11-21T18:57:13.934Z,78.83
2022-11-21T19:00:16.668Z,78.23
2022-11-21T19:03:20.662Z,79.83
2022-11-21T19:06:23.985Z,78.97
2022-11-21T19:09:32.283Z,78.10
2022-11-21T19:12:39.248Z,79.97
2022-11-21T19:15:42.974Z,78.85
2022-11-21T19:19:05.357Z,79.32
2022-11-21T19:22:24.678Z,78.05
2022-11-21T19:36:38.697Z,77.54
2022-11-21T19:41:14.933Z,77.64
2022-11-21T19:44:35.348Z,78.10
2022-11-21T19:47:37.516Z,77.72
2022-11-21T19:50:43.069Z,77.56
2022-11-21T19:53:48.118Z,78.52
2022-11-21T19:56:50.220Z,77.42
2022-11-21T19:59:52.370Z,77.62
2022-11-21T20:02:54.622Z,76.87
2022-11-21T20:06:23.599Z,77.58
2022-11-21T20:09:27.624Z,77.09
2022-11-21T20:12:31.653Z,77.39
2022-11-21T20:15:39.381Z,76.72
2022-11-21T20:18:41.760Z,75.14
2022-11-21T20:21:45.038Z,74.68
2022-11-21T20:24:51.558Z,75.29
2022-11-21T20:27:53.997Z,74.48
2022-11-21T20:31:06.469Z,74.50
2022-11-21T20:34:12.737Z,74.15
2022-11-21T20:37:14.939Z,73.27
2022-11-21T20:40:17.268Z,73.96
2022-11-21T20:43:19.455Z,73.59
2022-11-21T20:46:21.762Z,74.26
2022-11-21T20:49:24.072Z,75.68
2022-11-21T20:55:48.412Z,75.32
2022-11-21T20:58:50.597Z,74.46
2022-11-21T21:01:53.077Z,74.46
2022-11-21T21:04:55.418Z,75.64
2022-11-21T21:07:58.071Z,76.74
2022-11-21T21:11:36.770Z,76.79
2022-11-21T21:14:36.389Z,76.84
2022-11-21T21:17:38.469Z,75.69
2022-11-21T21:21:09.446Z,75.53
2022-11-21T21:24:06.464Z,76.32
2022-11-21T21:27:09.176Z,76.17
2022-11-21T21:30:11.981Z,75.48
2022-11-21T21:33:16.720Z,76.16
2022-11-21T21:36:21.568Z,77.23
2022-11-21T21:39:24.579Z,76.51
2022-11-21T21:42:27.010Z,76.65
2022-11-21T21:45:29.256Z,77.19
2022-11-21T21:48:31.399Z,76.73
2022-11-21T21:51:33.551Z,76.53
2022-11-21T21:54:35.671Z,78.03
2022-11-21T21:57:43.575Z,79.05
2022-11-21T22:00:48.230Z,77.76
2022-11-21T22:03:57.035Z,80.39
2022-11-21T22:07:00.251Z,77.54
2022-11-21T22:10:02.988Z,77.92
2022-11-21T22:13:05.071Z,78.96
2022-11-21T22:16:07.938Z,78.57
2022-11-21T22:19:10.173Z,78.86
2022-11-21T22:22:12.600Z,77.94
2022-11-21T22:25:14.761Z,78.31
2022-11-21T22:28:17.248Z,78.31
2022-11-21T22:31:19.345Z,76.74
2022-11-21T22:34:21.818Z,75.49
2022-11-21T22:37:23.868Z,76.06
2022-11-21T22:40:25.938Z,76.08
2022-11-21T22:43:28.165Z,76.47
2022-11-21T22:46:30.575Z,76.23
2022-11-21T22:49:33.211Z,76.14
2022-11-21T22:52:35.717Z,77.15
2022-11-21T22:55:37.828Z,77.61
2022-11-21T22:58:40.817Z,77.50
2022-11-21T23:01:42.901Z,78.05
2022-11-21T23:04:45.064Z,78.28
2022-11-21T23:07:47.221Z,76.73
2022-11-21T23:10:49.340Z,78.85
2022-11-21T23:13:51.761Z,78.23
2022-11-21T23:16:53.869Z,78.28
2022-11-21T23:19:55.960Z,78.55
2022-11-21T23:22:58.022Z,78.40
2022-11-21T23:26:00.255Z,79.63
2022-11-21T23:29:07.988Z,79.53
2022-11-21T23:32:10.854Z,78.44
2022-11-21T23:35:13.136Z,78.53
2022-11-21T23:38:16.324Z,78.41
2022-11-21T23:41:18.383Z,77.97
2022-11-21T23:44:20.460Z,76.85
2022-11-21T23:47:22.543Z,76.72
2022-11-21T23:50:24.688Z,76.38
2022-11-21T23:53:26.779Z,76.35
2022-11-21T23:56:28.873Z,76.06
2022-11-21T23:59:31.277Z,77.32
